Pagina principale
METAR-TAF:

METAR-TAF

Aeroporti :

Aeroporto di N'Djamena-Hassan Djamous

N'Djamena, Ciad

latitudine: 12-08N, longitudine: 015-02E, altezza: 295 m

Osservazione

Il bollettino è stato emesso 1 ora e 9 minuti fa, alle 02:00 UTC
Vento 4 kt da nord-est
Temperature 24°C
Umidità 57%
Pressione 1008 hPa
Visibilità: 8000 m

METAR: FTTJ 230200Z 05004KT 8000 NSC 24/15 Q1008 NOSIG

Ora: 04:09 (03:09 UTC)

Previsione

Il bollettino è stato emesso 4 ore e 9 minuti fa, alle 23:00 UTC
Previsione valida dal 23 alle 00 UTC al 24 alle 06 UTC
Vento 4 kt da direzioni variabili
Visibilità: 8000 m
Temporaneamente
dal 23 alle 02 UTC al 23 alle 06 UTC
Visibilità: 4000 m
foschia
Temporaneamente
dal 23 alle 08 UTC al 23 alle 15 UTC
Vento 6 kt da sud-est
Visibilità 10 km o più
Poco nuvoloso ad un'altezza di 4000 ft

TAF: FTTJ 222300Z 2300/2406 VRB04KT 8000 NSC TEMPO 2302/2306 4000 HZ TEMPO 2308/2315 14006KT 9999 FEW040

Osservazioni e previsioni meteorologiche di più di 4000 aeroporti (messaggi METAR e TAF).

Le stazioni disponibili sono rappresentate dai dischi gialli e rossi sulla carta.

Puntare il mouse per vedere il nome della stazione.

Clicca sopra per visualizzare le osservazioni e previsioni meteorologiche.

Per cambiare la mappa : fare clic sui pulsanti verdi con una croce nera per ingrandire, il pulsante verde con un trattino per diminuire, o sulla freccia verde per le mappe adiacenti.


METAR-TAF: